createdAt,value
2023-01-01T00:01:40.207Z,80.82
2023-01-01T00:04:29.782Z,80.49
2023-01-01T00:07:18.987Z,80.39
2023-01-01T00:10:28.340Z,80.14
2023-01-01T00:13:18.959Z,80.04
2023-01-01T00:16:10.234Z,79.98
2023-01-01T00:18:59.584Z,79.80
2023-01-01T00:21:48.879Z,79.35
2023-01-01T00:24:38.122Z,79.07
2023-01-01T00:27:27.402Z,78.36
2023-01-01T00:30:18.205Z,77.96
2023-01-01T00:33:07.573Z,77.50
2023-01-01T00:35:56.733Z,77.20
2023-01-01T00:38:47.085Z,77.16
2023-01-01T00:41:36.352Z,76.94
2023-01-01T00:44:25.567Z,76.83
2023-01-01T00:47:16.195Z,76.73
2023-01-01T00:50:06.321Z,76.72
2023-01-01T00:52:55.642Z,77.02
2023-01-01T00:55:45.309Z,76.91
2023-01-01T00:58:34.749Z,77.46
2023-01-01T01:01:24.130Z,77.33
2023-01-01T01:04:14.905Z,77.20
2023-01-01T01:07:04.348Z,77.38
2023-01-01T01:09:53.589Z,77.70
2023-01-01T01:12:42.996Z,77.54
2023-01-01T01:15:32.260Z,77.74
2023-01-01T01:18:21.999Z,77.50
2023-01-01T01:21:15.767Z,77.81
2023-01-01T01:24:05.803Z,77.62
2023-01-01T01:26:55.195Z,77.92
2023-01-01T01:29:44.654Z,77.77
2023-01-01T01:32:33.973Z,77.83
2023-01-01T01:35:23.378Z,77.74
2023-01-01T01:38:14.857Z,77.46
2023-01-01T01:41:05.297Z,77.44
2023-01-01T01:43:59.313Z,77.53
2023-01-01T01:46:48.516Z,77.49
2023-01-01T01:49:37.811Z,77.71
2023-01-01T01:52:29.584Z,77.46
2023-01-01T01:55:20.385Z,77.77
2023-01-01T01:58:14.619Z,77.65
2023-01-01T02:01:04.348Z,78.12
2023-01-01T02:04:00.203Z,78.28
2023-01-01T02:06:50.085Z,78.72
2023-01-01T02:09:39.454Z,79.12
2023-01-01T02:12:30.520Z,79.05
2023-01-01T02:15:20.150Z,78.96
2023-01-01T02:18:15.530Z,79.13
2023-01-01T02:21:10.651Z,78.91
2023-01-01T02:24:27.793Z,79.12
2023-01-01T02:27:28.296Z,78.98
2023-01-01T02:30:20.046Z,79.06
2023-01-01T02:33:16.523Z,79.10
2023-01-01T02:36:08.369Z,79.14
2023-01-01T02:39:01.258Z,78.71
2023-01-01T02:41:55.643Z,78.72
2023-01-01T02:44:50.021Z,78.35
2023-01-01T02:47:41.053Z,78.44
2023-01-01T02:50:31.015Z,78.45
2023-01-01T02:53:28.374Z,78.33
2023-01-01T02:56:29.118Z,78.20
2023-01-01T02:59:45.087Z,77.78
2023-01-01T03:02:51.565Z,78.03
2023-01-01T03:06:07.111Z,78.28
2023-01-01T03:09:11.719Z,78.54
2023-01-01T03:12:10.453Z,78.30
2023-01-01T03:15:04.568Z,77.99
2023-01-01T03:18:04.227Z,77.55
2023-01-01T03:20:58.221Z,77.47
2023-01-01T03:23:54.788Z,77.32
2023-01-01T03:26:46.556Z,77.00
2023-01-01T03:29:41.024Z,77.17
2023-01-01T03:33:11.098Z,77.17
2023-01-01T03:36:08.005Z,77.06
2023-01-01T03:39:02.552Z,76.96
2023-01-01T03:41:57.393Z,76.89
2023-01-01T03:44:52.030Z,77.27
2023-01-01T03:47:41.348Z,76.81
2023-01-01T03:50:43.622Z,76.94
2023-01-01T03:53:42.276Z,76.79
2023-01-01T03:56:40.773Z,76.92
2023-01-01T03:59:39.757Z,76.77
2023-01-01T04:02:41.039Z,77.48
2023-01-01T04:05:33.791Z,77.67
2023-01-01T04:08:23.319Z,77.62
2023-01-01T04:11:38.404Z,77.35
2023-01-01T04:14:32.026Z,77.87
2023-01-01T04:17:21.378Z,77.86
2023-01-01T04:20:12.094Z,77.59
2023-01-01T04:23:03.153Z,77.77
2023-01-01T04:25:52.362Z,78.17
2023-01-01T04:28:43.993Z,78.48
2023-01-01T04:31:33.298Z,77.92
2023-01-01T04:34:22.586Z,77.95
2023-01-01T04:37:13.644Z,78.08
2023-01-01T04:40:03.223Z,78.27
2023-01-01T04:42:55.694Z,78.24
2023-01-01T04:45:56.053Z,78.94
2023-01-01T04:48:45.840Z,78.62
2023-01-01T04:51:35.107Z,78.99
2023-01-01T04:54:24.564Z,79.09
2023-01-01T04:57:13.925Z,79.06
2023-01-01T05:00:03.616Z,79.22
2023-01-01T05:02:54.335Z,79.30
2023-01-01T05:05:49.457Z,79.35
2023-01-01T05:08:42.774Z,79.36
2023-01-01T05:11:32.443Z,79.10
2023-01-01T05:14:21.704Z,79.29
2023-01-01T05:17:11.051Z,79.27
2023-01-01T05:20:01.780Z,79.22
2023-01-01T05:22:51.051Z,79.17
2023-01-01T05:25:40.327Z,79.39
2023-01-01T05:28:29.624Z,79.27
2023-01-01T05:31:25.199Z,79.19
2023-01-01T05:34:14.886Z,79.15
2023-01-01T05:37:05.483Z,79.00
2023-01-01T05:39:54.715Z,78.62
2023-01-01T05:42:44.125Z,78.81
2023-01-01T05:45:33.443Z,78.61
2023-01-01T05:48:22.715Z,79.01
2023-01-01T05:51:14.981Z,78.92
2023-01-01T05:54:06.079Z,78.81
2023-01-01T05:56:55.329Z,79.28
2023-01-01T05:59:44.519Z,79.75
2023-01-01T06:02:33.827Z,79.41
2023-01-01T06:05:23.139Z,80.07
2023-01-01T06:08:12.449Z,79.74
2023-01-01T06:11:05.536Z,79.73
2023-01-01T06:13:56.468Z,80.10
2023-01-01T06:16:45.747Z,80.22
2023-01-01T06:19:34.991Z,80.14
2023-01-01T06:22:24.240Z,80.23
2023-01-01T06:25:14.161Z,80.02
2023-01-01T06:28:04.926Z,79.85
2023-01-01T06:30:54.185Z,79.46
2023-01-01T06:33:43.933Z,79.37
2023-01-01T06:36:33.207Z,79.34
2023-01-01T06:39:22.466Z,79.15
2023-01-01T06:42:11.681Z,78.96
2023-01-01T06:45:03.807Z,78.95
2023-01-01T06:47:53.249Z,78.97
2023-01-01T06:50:42.459Z,79.28
2023-01-01T06:53:31.879Z,79.23
2023-01-01T06:56:22.345Z,79.15
2023-01-01T06:59:11.792Z,78.91
2023-01-01T07:02:02.495Z,78.97
2023-01-01T07:04:51.901Z,78.40
2023-01-01T07:07:41.740Z,78.92
2023-01-01T07:10:31.172Z,78.35
2023-01-01T07:13:20.553Z,78.87
2023-01-01T07:16:13.211Z,79.02
2023-01-01T07:19:04.154Z,78.42
2023-01-01T07:21:55.216Z,78.56
2023-01-01T07:24:44.506Z,78.72
2023-01-01T07:27:33.771Z,78.78
2023-01-01T07:30:23.028Z,78.49
2023-01-01T07:33:14.343Z,78.83
2023-01-01T07:36:05.290Z,78.19
2023-01-01T07:38:54.575Z,78.47
2023-01-01T07:41:43.814Z,78.44
2023-01-01T07:44:35.893Z,78.43
2023-01-01T07:47:27.577Z,78.41
2023-01-01T07:50:19.306Z,78.56
2023-01-01T07:53:10.041Z,78.69
2023-01-01T07:55:59.680Z,78.83
2023-01-01T07:58:48.937Z,78.81
2023-01-01T08:01:39.137Z,78.93
2023-01-01T08:04:28.689Z,78.85
2023-01-01T08:07:18.126Z,79.19
2023-01-01T08:10:11.385Z,79.18
2023-01-01T08:13:04.531Z,78.83
2023-01-01T08:15:55.674Z,78.38
2023-01-01T08:18:44.985Z,79.12
2023-01-01T08:21:34.323Z,78.45
2023-01-01T08:24:23.645Z,78.58
2023-01-01T08:27:16.529Z,78.60
2023-01-01T08:30:07.167Z,78.12
2023-01-01T08:32:56.532Z,78.26
2023-01-01T08:35:51.969Z,78.30
2023-01-01T08:38:43.668Z,77.74
2023-01-01T08:41:32.963Z,77.24
2023-01-01T08:44:23.689Z,77.68
2023-01-01T08:47:20.173Z,77.30
2023-01-01T08:50:10.765Z,77.66
2023-01-01T08:53:00.101Z,77.93
2023-01-01T08:55:58.437Z,78.18
2023-01-01T08:58:47.744Z,78.51
2023-01-01T09:01:38.511Z,78.55
2023-01-01T09:04:28.052Z,79.09
2023-01-01T09:07:17.274Z,79.37
2023-01-01T09:10:08.035Z,79.27
2023-01-01T09:12:57.319Z,79.54
2023-01-01T09:15:46.979Z,79.47
2023-01-01T09:18:37.725Z,79.47
2023-01-01T09:21:26.955Z,79.63
2023-01-01T09:24:16.706Z,79.32
2023-01-01T09:27:06.300Z,79.27
2023-01-01T09:29:55.873Z,79.66
2023-01-01T09:32:45.148Z,80.04
2023-01-01T09:35:38.580Z,80.01
2023-01-01T09:38:27.921Z,80.17
2023-01-01T09:41:27.016Z,80.34
2023-01-01T09:44:40.168Z,80.74
2023-01-01T09:47:35.828Z,80.72
2023-01-01T09:50:33.098Z,80.36
2023-01-01T09:53:32.798Z,79.84
2023-01-01T09:56:27.370Z,79.87
2023-01-01T09:59:16.669Z,80.21
2023-01-01T10:02:25.951Z,79.94
2023-01-01T10:05:33.485Z,79.97
2023-01-01T10:08:55.397Z,80.25
2023-01-01T10:11:55.359Z,79.76
2023-01-01T10:14:53.086Z,80.23
2023-01-01T10:17:49.631Z,80.88
2023-01-01T10:20:42.189Z,81.15
2023-01-01T10:23:39.519Z,81.64
2023-01-01T10:26:32.677Z,81.90
2023-01-01T10:29:26.154Z,81.97
2023-01-01T10:32:22.518Z,81.85
2023-01-01T10:35:17.095Z,81.80
2023-01-01T10:38:07.064Z,81.84
2023-01-01T10:41:04.672Z,81.80
2023-01-01T10:43:55.498Z,82.01
2023-01-01T10:46:50.078Z,82.19
2023-01-01T10:49:59.724Z,81.96
2023-01-01T10:52:57.977Z,82.23
2023-01-01T10:55:51.294Z,82.35
2023-01-01T10:58:47.185Z,82.08
2023-01-01T11:01:38.618Z,81.85
2023-01-01T11:04:28.019Z,81.72
2023-01-01T11:07:29.186Z,81.67
2023-01-01T11:10:21.607Z,81.43
2023-01-01T11:13:21.015Z,81.82
2023-01-01T11:16:13.029Z,81.73
2023-01-01T11:19:08.660Z,81.85
2023-01-01T11:21:57.997Z,81.90
2023-01-01T11:25:02.699Z,82.07
2023-01-01T11:27:53.377Z,82.11
2023-01-01T11:30:59.590Z,82.50
2023-01-01T11:33:52.741Z,82.03
2023-01-01T11:36:43.392Z,81.93
2023-01-01T11:39:36.132Z,82.06
2023-01-01T11:42:27.861Z,81.91
2023-01-01T11:45:22.353Z,81.71
2023-01-01T11:48:19.954Z,81.81
2023-01-01T11:51:11.998Z,81.75
2023-01-01T11:54:26.313Z,80.80
2023-01-01T11:57:23.087Z,79.71
2023-01-01T12:00:16.964Z,79.60
2023-01-01T12:03:18.707Z,79.67
2023-01-01T12:06:16.578Z,78.93
2023-01-01T12:09:18.592Z,78.63
2023-01-01T12:12:16.781Z,78.71
2023-01-01T12:15:15.367Z,78.44
2023-01-01T12:18:14.424Z,78.69
2023-01-01T12:21:09.672Z,78.92
2023-01-01T12:23:58.916Z,78.75
2023-01-01T12:27:11.363Z,78.48
2023-01-01T12:30:14.935Z,78.13
2023-01-01T12:33:32.626Z,77.79
2023-01-01T12:36:37.926Z,77.39
2023-01-01T12:40:24.907Z,77.25
2023-01-01T12:43:21.881Z,76.96
2023-01-01T12:46:42.901Z,76.96
2023-01-01T12:49:52.968Z,76.83
2023-01-01T12:52:58.769Z,76.67
2023-01-01T12:56:22.885Z,77.08
2023-01-01T12:59:17.920Z,77.04
2023-01-01T13:02:18.170Z,77.19
2023-01-01T13:05:19.221Z,77.19
2023-01-01T13:08:09.089Z,77.27
2023-01-01T13:11:02.632Z,77.42
2023-01-01T13:13:52.093Z,77.87
2023-01-01T13:16:46.755Z,78.07
2023-01-01T13:19:38.489Z,78.51
2023-01-01T13:22:43.232Z,79.04
2023-01-01T13:25:32.542Z,79.47
2023-01-01T13:28:21.812Z,79.62
2023-01-01T13:31:11.171Z,79.87
2023-01-01T13:34:37.799Z,79.79
2023-01-01T13:37:42.989Z,79.92
2023-01-01T13:40:52.986Z,80.38
2023-01-01T13:43:42.589Z,80.58
2023-01-01T13:46:51.839Z,80.11
2023-01-01T13:50:05.888Z,80.05
2023-01-01T13:53:06.369Z,79.79
2023-01-01T13:56:13.401Z,80.18
2023-01-01T13:59:32.428Z,79.61
2023-01-01T14:02:29.787Z,79.59
2023-01-01T14:05:26.327Z,79.34
2023-01-01T14:08:34.195Z,79.69
2023-01-01T14:11:26.285Z,79.43
2023-01-01T14:14:28.598Z,79.01
2023-01-01T14:17:19.034Z,79.00
2023-01-01T14:20:10.341Z,78.99
2023-01-01T14:23:08.705Z,79.44
2023-01-01T14:25:58.631Z,78.74
2023-01-01T14:28:48.281Z,78.67
2023-01-01T14:31:43.245Z,78.32
2023-01-01T14:34:35.075Z,78.55
2023-01-01T14:37:26.794Z,78.58
2023-01-01T14:40:28.077Z,78.89
2023-01-01T14:43:20.038Z,79.00
2023-01-01T14:46:14.925Z,79.34
2023-01-01T14:49:11.397Z,79.78
2023-01-01T14:52:08.253Z,80.13
2023-01-01T14:55:00.557Z,80.44
2023-01-01T14:57:59.448Z,80.40
2023-01-01T15:00:48.887Z,80.78
2023-01-01T15:03:38.172Z,80.42
2023-01-01T15:06:28.166Z,80.83
2023-01-01T15:09:18.060Z,80.80
2023-01-01T15:12:07.987Z,80.90
2023-01-01T15:14:58.645Z,81.08
2023-01-01T15:17:49.302Z,81.23
2023-01-01T15:20:38.575Z,81.51
2023-01-01T15:23:28.022Z,81.50
2023-01-01T15:26:30.252Z,82.17
2023-01-01T15:29:29.857Z,82.25
2023-01-01T15:32:27.423Z,82.19
2023-01-01T15:35:30.766Z,82.00
2023-01-01T15:38:24.554Z,82.37
2023-01-01T15:41:36.827Z,82.17
2023-01-01T15:44:32.230Z,82.18
2023-01-01T15:47:26.736Z,82.27
2023-01-01T15:50:23.973Z,82.69
2023-01-01T15:53:20.486Z,82.77
2023-01-01T15:56:13.867Z,82.38
2023-01-01T15:59:09.496Z,82.50
2023-01-01T16:02:14.591Z,82.68
2023-01-01T16:05:14.870Z,82.63
2023-01-01T16:08:06.477Z,82.97
2023-01-01T16:10:55.701Z,83.07
2023-01-01T16:13:44.977Z,83.02
2023-01-01T16:16:34.790Z,83.35
2023-01-01T16:19:24.808Z,83.07
2023-01-01T16:22:18.572Z,83.08
2023-01-01T16:25:15.989Z,82.95
2023-01-01T16:28:06.034Z,83.26
2023-01-01T16:30:55.814Z,83.12
2023-01-01T16:33:49.127Z,83.13
2023-01-01T16:36:38.393Z,83.12
2023-01-01T16:39:29.118Z,82.99
2023-01-01T16:42:18.740Z,82.96
2023-01-01T16:45:14.406Z,82.88
2023-01-01T16:48:03.802Z,82.82
2023-01-01T16:50:53.278Z,83.20
2023-01-01T16:53:42.866Z,83.47
2023-01-01T16:56:33.571Z,83.65
2023-01-01T16:59:23.174Z,83.65
2023-01-01T17:02:12.934Z,83.22
2023-01-01T17:05:02.454Z,83.68
2023-01-01T17:07:53.272Z,83.86
2023-01-01T17:10:43.131Z,83.90
2023-01-01T17:13:35.509Z,84.22
2023-01-01T17:16:29.119Z,84.78
2023-01-01T17:19:20.707Z,84.51
2023-01-01T17:22:10.107Z,84.86
2023-01-01T17:24:59.444Z,84.74
2023-01-01T17:27:49.809Z,84.49
2023-01-01T17:30:40.457Z,85.18
2023-01-01T17:33:30.637Z,85.24
2023-01-01T17:36:19.865Z,85.25
2023-01-01T17:39:11.368Z,85.12
2023-01-01T17:42:01.873Z,84.90
2023-01-01T17:44:51.168Z,85.08
2023-01-01T17:47:42.602Z,85.27
2023-01-01T17:50:31.970Z,85.39
2023-01-01T17:53:21.248Z,85.37
2023-01-01T17:56:12.477Z,85.24
2023-01-01T17:59:01.740Z,85.21
2023-01-01T18:01:51.391Z,85.47
2023-01-01T18:04:42.709Z,85.69
2023-01-01T18:07:31.997Z,85.34
2023-01-01T18:10:21.941Z,85.24
2023-01-01T18:13:11.255Z,85.35
2023-01-01T18:16:02.295Z,85.63
2023-01-01T18:18:51.847Z,85.52
2023-01-01T18:21:43.149Z,85.57
2023-01-01T18:24:32.519Z,85.65
2023-01-01T18:27:21.794Z,85.65
2023-01-01T18:30:11.939Z,85.57
2023-01-01T18:33:01.269Z,85.55
2023-01-01T18:35:50.457Z,85.69
2023-01-01T18:38:42.634Z,85.94
2023-01-01T18:42:00.886Z,85.99
2023-01-01T18:44:50.176Z,85.70
2023-01-01T18:47:39.450Z,85.87
2023-01-01T18:50:31.360Z,85.83
2023-01-01T18:53:23.358Z,85.70
2023-01-01T18:56:15.733Z,85.56
2023-01-01T18:59:20.202Z,85.56
2023-01-01T19:02:28.747Z,85.59
2023-01-01T19:05:24.820Z,85.14
2023-01-01T19:08:17.402Z,85.62
2023-01-01T19:11:16.380Z,85.58
2023-01-01T19:14:16.723Z,86.37
2023-01-01T19:17:18.434Z,86.01
2023-01-01T19:20:20.920Z,85.72
2023-01-01T19:23:18.369Z,85.65
2023-01-01T19:26:17.704Z,85.92
2023-01-01T19:29:17.026Z,85.20
2023-01-01T19:32:06.515Z,85.25
2023-01-01T19:34:56.439Z,84.64
2023-01-01T19:37:45.649Z,85.04
2023-01-01T19:40:34.887Z,85.12
2023-01-01T19:43:25.519Z,84.79
2023-01-01T19:46:14.858Z,84.93
2023-01-01T19:49:04.124Z,84.99
2023-01-01T19:51:53.490Z,84.89
2023-01-01T19:54:42.749Z,85.34
2023-01-01T19:57:31.997Z,85.56
2023-01-01T20:00:23.871Z,85.79
2023-01-01T20:06:23.223Z,85.53
2023-01-01T20:09:12.539Z,85.68
2023-01-01T20:12:02.119Z,86.19
2023-01-01T20:14:51.956Z,86.71
2023-01-01T20:17:42.945Z,86.32
2023-01-01T20:20:35.273Z,86.48
2023-01-01T20:23:24.915Z,86.40
2023-01-01T20:26:15.876Z,86.59
2023-01-01T20:29:23.059Z,86.41
2023-01-01T20:32:13.438Z,86.83
2023-01-01T20:35:04.284Z,86.26
2023-01-01T20:37:52.472Z,86.81
2023-01-01T20:40:41.976Z,86.32
2023-01-01T20:43:31.341Z,86.32
2023-01-01T20:46:20.880Z,86.43
2023-01-01T20:49:10.375Z,86.28
2023-01-01T20:52:00.978Z,86.46
2023-01-01T20:54:50.852Z,86.31
2023-01-01T20:57:40.107Z,86.59
2023-01-01T21:00:30.823Z,86.59
2023-01-01T21:03:20.409Z,86.16
2023-01-01T21:06:09.911Z,86.54
2023-01-01T21:09:00.741Z,86.83
2023-01-01T21:11:49.999Z,86.25
2023-01-01T21:14:39.394Z,86.21
2023-01-01T21:17:29.621Z,86.55
2023-01-01T21:20:21.544Z,86.03
2023-01-01T21:23:17.665Z,86.47
2023-01-01T21:26:16.713Z,85.92
2023-01-01T21:29:14.779Z,86.01
2023-01-01T21:32:17.622Z,86.59
2023-01-01T21:35:19.313Z,85.83
2023-01-01T21:38:20.249Z,86.32
2023-01-01T21:41:20.436Z,86.59
2023-01-01T21:44:15.616Z,86.16
2023-01-01T21:47:08.299Z,86.46
2023-01-01T21:49:57.969Z,85.96
2023-01-01T21:52:47.740Z,86.29
2023-01-01T21:55:51.939Z,85.33
2023-01-01T21:59:03.980Z,86.12
2023-01-01T22:01:54.889Z,85.64
2023-01-01T22:04:47.527Z,86.21
2023-01-01T22:10:49.199Z,85.72
2023-01-01T22:13:38.494Z,85.71
2023-01-01T22:16:31.409Z,85.88
2023-01-01T22:19:24.779Z,85.79
2023-01-01T22:22:16.192Z,85.99
2023-01-01T22:25:24.017Z,86.22
2023-01-01T22:28:21.151Z,86.50
2023-01-01T22:31:14.454Z,86.48
2023-01-01T22:34:06.743Z,86.11
2023-01-01T22:36:56.306Z,86.23
2023-01-01T22:39:45.596Z,85.95
2023-01-01T22:42:40.812Z,85.83
2023-01-01T22:45:31.458Z,86.25
2023-01-01T22:48:25.301Z,85.49
2023-01-01T22:51:20.402Z,85.68
2023-01-01T22:54:09.685Z,85.77
2023-01-01T22:56:58.941Z,85.82
2023-01-01T22:59:48.184Z,85.70
2023-01-01T23:02:37.436Z,86.32
2023-01-01T23:05:26.928Z,85.31
2023-01-01T23:08:17.729Z,85.25
2023-01-01T23:11:07.011Z,85.40
2023-01-01T23:14:13.813Z,85.73
2023-01-01T23:17:03.219Z,85.00
2023-01-01T23:19:53.653Z,85.89
2023-01-01T23:22:47.417Z,85.84
2023-01-01T23:25:38.064Z,85.37
2023-01-01T23:28:29.835Z,85.67
2023-01-01T23:31:25.207Z,85.64
2023-01-01T23:34:15.656Z,85.42
2023-01-01T23:37:04.995Z,85.62
2023-01-01T23:39:54.314Z,85.64
2023-01-01T23:42:44.979Z,85.93
2023-01-01T23:45:36.057Z,85.56
2023-01-01T23:48:25.570Z,85.78
2023-01-01T23:51:15.768Z,85.00
2023-01-01T23:54:05.194Z,85.72
2023-01-01T23:56:54.436Z,85.31
2023-01-01T23:59:45.070Z,85.03
